sensor_id;sensor_type;location;lat;lon;timestamp;temperature;humidity
49052;DHT22;34866;48.670;18.260;2023-09-07T00:01:44;460.90;128.00
49052;DHT22;34866;48.670;18.260;2023-09-07T00:04:09;460.90;128.00
49052;DHT22;34866;48.670;18.260;2023-09-07T00:06:36;460.90;128.00
49052;DHT22;34866;48.670;18.260;2023-09-07T00:09:02;460.90;128.00
49052;DHT22;34866;48.670;18.260;2023-09-07T00:11:28;460.80;128.00
49052;DHT22;34866;48.670;18.260;2023-09-07T00:13:54;436.10;128.00
49052;DHT22;34866;48.670;18.260;2023-09-07T00:16:20;436.10;128.00
49052;DHT22;34866;48.670;18.260;2023-09-07T00:18:45;436.10;128.00
49052;DHT22;34866;48.670;18.260;2023-09-07T00:21:11;436.00;128.00
49052;DHT22;34866;48.670;18.260;2023-09-07T00:23:37;436.00;128.00
49052;DHT22;34866;48.670;18.260;2023-09-07T00:26:02;436.00;128.00
49052;DHT22;34866;48.670;18.260;2023-09-07T00:28:28;436.00;128.00
49052;DHT22;34866;48.670;18.260;2023-09-07T00:30:54;435.90;128.00
49052;DHT22;34866;48.670;18.260;2023-09-07T00:33:20;436.00;128.00
49052;DHT22;34866;48.670;18.260;2023-09-07T00:35:45;436.00;128.00
49052;DHT22;34866;48.670;18.260;2023-09-07T00:38:11;435.90;128.00
49052;DHT22;34866;48.670;18.260;2023-09-07T00:40:37;435.50;128.00
49052;DHT22;34866;48.670;18.260;2023-09-07T00:43:03;435.80;128.00
49052;DHT22;34866;48.670;18.260;2023-09-07T00:45:30;435.80;128.00
49052;DHT22;34866;48.670;18.260;2023-09-07T00:47:56;435.80;128.00
49052;DHT22;34866;48.670;18.260;2023-09-07T00:50:21;435.60;128.00
49052;DHT22;34866;48.670;18.260;2023-09-07T00:52:48;435.60;128.00
49052;DHT22;34866;48.670;18.260;2023-09-07T00:55:13;435.70;128.00
49052;DHT22;34866;48.670;18.260;2023-09-07T00:57:39;435.60;128.00
49052;DHT22;34866;48.670;18.260;2023-09-07T01:00:08;435.60;128.00
49052;DHT22;34866;48.670;18.260;2023-09-07T01:02:35;435.40;128.00
49052;DHT22;34866;48.670;18.260;2023-09-07T01:05:02;435.30;128.00
49052;DHT22;34866;48.670;18.260;2023-09-07T01:07:36;435.40;128.00
49052;DHT22;34866;48.670;18.260;2023-09-07T01:10:03;435.30;128.00
49052;DHT22;34866;48.670;18.260;2023-09-07T01:12:29;435.20;128.00
49052;DHT22;34866;48.670;18.260;2023-09-07T01:14:55;435.20;128.00
49052;DHT22;34866;48.670;18.260;2023-09-07T01:17:22;435.20;128.00
49052;DHT22;34866;48.670;18.260;2023-09-07T01:19:53;435.20;128.00
49052;DHT22;34866;48.670;18.260;2023-09-07T01:22:20;410.50;128.00
49052;DHT22;34866;48.670;18.260;2023-09-07T01:24:50;410.50;128.00
49052;DHT22;34866;48.670;18.260;2023-09-07T01:27:17;410.40;128.00
49052;DHT22;34866;48.670;18.260;2023-09-07T01:29:43;410.40;128.00
49052;DHT22;34866;48.670;18.260;2023-09-07T01:32:08;410.30;128.00
49052;DHT22;34866;48.670;18.260;2023-09-07T01:34:35;410.30;128.00
49052;DHT22;34866;48.670;18.260;2023-09-07T01:37:01;410.10;128.00
49052;DHT22;34866;48.670;18.260;2023-09-07T01:39:27;410.10;128.00
49052;DHT22;34866;48.670;18.260;2023-09-07T01:41:53;410.00;128.00
49052;DHT22;34866;48.670;18.260;2023-09-07T01:44:19;410.10;128.00
49052;DHT22;34866;48.670;18.260;2023-09-07T01:46:44;410.10;128.00
49052;DHT22;34866;48.670;18.260;2023-09-07T01:49:10;410.00;128.00
49052;DHT22;34866;48.670;18.260;2023-09-07T01:51:36;410.00;128.00
49052;DHT22;34866;48.670;18.260;2023-09-07T01:54:03;410.10;128.00
49052;DHT22;34866;48.670;18.260;2023-09-07T01:56:30;410.00;128.00
49052;DHT22;34866;48.670;18.260;2023-09-07T01:58:56;410.00;128.00
49052;DHT22;34866;48.670;18.260;2023-09-07T02:01:26;409.80;128.00
49052;DHT22;34866;48.670;18.260;2023-09-07T02:03:54;409.90;128.00
49052;DHT22;34866;48.670;18.260;2023-09-07T02:06:20;409.80;128.00
49052;DHT22;34866;48.670;18.260;2023-09-07T02:08:46;409.90;128.00
49052;DHT22;34866;48.670;18.260;2023-09-07T02:11:12;409.80;128.00
49052;DHT22;34866;48.670;18.260;2023-09-07T02:13:38;409.60;128.00
49052;DHT22;34866;48.670;18.260;2023-09-07T02:16:06;384.90;128.00
49052;DHT22;34866;48.670;18.260;2023-09-07T02:18:32;409.60;128.00
49052;DHT22;34866;48.670;18.260;2023-09-07T02:21:02;409.70;128.00
49052;DHT22;34866;48.670;18.260;2023-09-07T02:23:29;384.90;128.00
49052;DHT22;34866;48.670;18.260;2023-09-07T02:25:55;384.80;128.00
49052;DHT22;34866;48.670;18.260;2023-09-07T02:28:21;384.80;128.00
49052;DHT22;34866;48.670;18.260;2023-09-07T02:30:47;384.90;128.00
49052;DHT22;34866;48.670;18.260;2023-09-07T02:33:13;384.90;128.00
49052;DHT22;34866;48.670;18.260;2023-09-07T02:35:39;384.80;128.00
49052;DHT22;34866;48.670;18.260;2023-09-07T02:38:05;384.80;128.00
49052;DHT22;34866;48.670;18.260;2023-09-07T02:40:31;384.70;128.00
49052;DHT22;34866;48.670;18.260;2023-09-07T02:42:56;384.80;128.00
49052;DHT22;34866;48.670;18.260;2023-09-07T02:45:22;384.80;128.00
49052;DHT22;34866;48.670;18.260;2023-09-07T02:47:48;384.80;128.00
49052;DHT22;34866;48.670;18.260;2023-09-07T02:50:16;384.80;128.00
49052;DHT22;34866;48.670;18.260;2023-09-07T02:52:43;384.80;128.00
49052;DHT22;34866;48.670;18.260;2023-09-07T02:55:09;384.70;128.00
49052;DHT22;34866;48.670;18.260;2023-09-07T02:57:35;384.60;128.00
49052;DHT22;34866;48.670;18.260;2023-09-07T03:00:01;384.50;128.00
49052;DHT22;34866;48.670;18.260;2023-09-07T03:02:34;384.40;128.00
49052;DHT22;34866;48.670;18.260;2023-09-07T03:05:01;384.40;128.00
49052;DHT22;34866;48.670;18.260;2023-09-07T03:07:30;384.50;128.00
49052;DHT22;34866;48.670;18.260;2023-09-07T03:09:55;384.40;128.00
49052;DHT22;34866;48.670;18.260;2023-09-07T03:12:21;384.50;128.00
49052;DHT22;34866;48.670;18.260;2023-09-07T03:14:47;384.40;128.00
49052;DHT22;34866;48.670;18.260;2023-09-07T03:17:14;384.40;128.00
49052;DHT22;34866;48.670;18.260;2023-09-07T03:19:43;384.30;128.00
49052;DHT22;34866;48.670;18.260;2023-09-07T03:22:10;384.40;128.00
49052;DHT22;34866;48.670;18.260;2023-09-07T03:24:35;384.20;128.00
49052;DHT22;34866;48.670;18.260;2023-09-07T03:27:03;384.10;128.00
49052;DHT22;34866;48.670;18.260;2023-09-07T03:29:29;384.20;128.00
49052;DHT22;34866;48.670;18.260;2023-09-07T03:31:56;384.20;128.00
49052;DHT22;34866;48.670;18.260;2023-09-07T03:34:23;384.20;128.00
49052;DHT22;34866;48.670;18.260;2023-09-07T03:36:49;384.20;128.00
49052;DHT22;34866;48.670;18.260;2023-09-07T03:39:15;384.20;128.00
49052;DHT22;34866;48.670;18.260;2023-09-07T03:41:42;384.20;128.00
49052;DHT22;34866;48.670;18.260;2023-09-07T03:44:07;384.10;128.00
49052;DHT22;34866;48.670;18.260;2023-09-07T03:46:33;384.10;128.00
49052;DHT22;34866;48.670;18.260;2023-09-07T03:48:59;384.00;153.60
49052;DHT22;34866;48.670;18.260;2023-09-07T03:51:25;359.30;588.80
49052;DHT22;34866;48.670;18.260;2023-09-07T03:53:51;384.00;435.20
49052;DHT22;34866;48.670;18.260;2023-09-07T03:56:17;384.00;486.40
49052;DHT22;34866;48.670;18.260;2023-09-07T03:58:42;384.00;409.60
49052;DHT22;34866;48.670;18.260;2023-09-07T04:01:08;384.00;256.00
49052;DHT22;34866;48.670;18.260;2023-09-07T04:03:34;384.00;537.60
49052;DHT22;34866;48.670;18.260;2023-09-07T04:06:00;359.20;563.20
49052;DHT22;34866;48.670;18.260;2023-09-07T04:08:26;359.20;588.80
49052;DHT22;34866;48.670;18.260;2023-09-07T04:10:52;359.10;128.00
49052;DHT22;34866;48.670;18.260;2023-09-07T04:13:18;359.10;128.00
49052;DHT22;34866;48.670;18.260;2023-09-07T04:15:44;359.10;128.00
49052;DHT22;34866;48.670;18.260;2023-09-07T04:18:12;359.10;128.00
49052;DHT22;34866;48.670;18.260;2023-09-07T04:20:41;359.10;128.00
49052;DHT22;34866;48.670;18.260;2023-09-07T04:23:06;359.10;128.00
49052;DHT22;34866;48.670;18.260;2023-09-07T04:25:32;359.10;128.00
49052;DHT22;34866;48.670;18.260;2023-09-07T04:27:58;359.00;640.00
49052;DHT22;34866;48.670;18.260;2023-09-07T04:30:24;359.00;128.00
49052;DHT22;34866;48.670;18.260;2023-09-07T04:32:49;358.90;128.00
49052;DHT22;34866;48.670;18.260;2023-09-07T04:35:15;358.90;128.00
49052;DHT22;34866;48.670;18.260;2023-09-07T04:37:45;358.90;128.00
49052;DHT22;34866;48.670;18.260;2023-09-07T04:40:12;359.00;128.00
49052;DHT22;34866;48.670;18.260;2023-09-07T04:42:38;359.00;128.00
49052;DHT22;34866;48.670;18.260;2023-09-07T04:45:05;358.90;128.00
49052;DHT22;34866;48.670;18.260;2023-09-07T04:47:32;358.90;640.00
49052;DHT22;34866;48.670;18.260;2023-09-07T04:49:58;358.90;128.00
49052;DHT22;34866;48.670;18.260;2023-09-07T04:52:24;358.80;128.00
49052;DHT22;34866;48.670;18.260;2023-09-07T04:54:50;358.90;128.00
49052;DHT22;34866;48.670;18.260;2023-09-07T04:57:19;358.80;128.00
49052;DHT22;34866;48.670;18.260;2023-09-07T04:59:45;358.90;128.00
49052;DHT22;34866;48.670;18.260;2023-09-07T05:02:11;359.00;128.00
49052;DHT22;34866;48.670;18.260;2023-09-07T05:04:38;359.10;128.00
49052;DHT22;34866;48.670;18.260;2023-09-07T05:07:04;359.10;128.00
49052;DHT22;34866;48.670;18.260;2023-09-07T05:09:30;359.20;128.00
49052;DHT22;34866;48.670;18.260;2023-09-07T05:11:56;359.20;128.00
49052;DHT22;34866;48.670;18.260;2023-09-07T05:14:24;359.30;128.00
49052;DHT22;34866;48.670;18.260;2023-09-07T05:16:50;359.30;128.00
49052;DHT22;34866;48.670;18.260;2023-09-07T05:19:16;384.00;128.00
49052;DHT22;34866;48.670;18.260;2023-09-07T05:21:42;384.10;128.00
49052;DHT22;34866;48.670;18.260;2023-09-07T05:24:07;384.20;128.00
49052;DHT22;34866;48.670;18.260;2023-09-07T05:26:33;384.30;128.00
49052;DHT22;34866;48.670;18.260;2023-09-07T05:28:59;384.40;460.80
49052;DHT22;34866;48.670;18.260;2023-09-07T05:31:25;384.50;588.80
49052;DHT22;34866;48.670;18.260;2023-09-07T05:33:50;384.60;332.80
49052;DHT22;34866;48.670;18.260;2023-09-07T05:36:17;384.70;128.00
49052;DHT22;34866;48.670;18.260;2023-09-07T05:38:43;384.80;588.80
49052;DHT22;34866;48.670;18.260;2023-09-07T05:41:09;384.90;537.60
49052;DHT22;34866;48.670;18.260;2023-09-07T05:43:34;409.60;384.00
49052;DHT22;34866;48.670;18.260;2023-09-07T05:46:00;409.70;128.00
49052;DHT22;34866;48.670;18.260;2023-09-07T05:48:26;409.80;128.00
49052;DHT22;34866;48.670;18.260;2023-09-07T05:50:51;410.00;128.00
49052;DHT22;34866;48.670;18.260;2023-09-07T05:53:18;410.10;307.20
49052;DHT22;34866;48.670;18.260;2023-09-07T05:55:45;410.30;128.00
49052;DHT22;34866;48.670;18.260;2023-09-07T05:58:12;410.50;128.00
49052;DHT22;34866;48.670;18.260;2023-09-07T06:00:38;435.20;128.00
49052;DHT22;34866;48.670;18.260;2023-09-07T06:03:06;435.30;128.00
49052;DHT22;34866;48.670;18.260;2023-09-07T06:05:34;435.40;128.00
49052;DHT22;34866;48.670;18.260;2023-09-07T06:08:00;435.70;128.00
49052;DHT22;34866;48.670;18.260;2023-09-07T06:10:28;435.70;128.00
49052;DHT22;34866;48.670;18.260;2023-09-07T06:12:54;435.80;128.00
49052;DHT22;34866;48.670;18.260;2023-09-07T06:15:20;435.90;128.00
49052;DHT22;34866;48.670;18.260;2023-09-07T06:17:46;436.10;128.00
49052;DHT22;34866;48.670;18.260;2023-09-07T06:20:13;460.80;128.00
49052;DHT22;34866;48.670;18.260;2023-09-07T06:22:39;460.90;128.00
49052;DHT22;34866;48.670;18.260;2023-09-07T06:25:05;461.00;128.00
49052;DHT22;34866;48.670;18.260;2023-09-07T06:27:31;461.30;128.00
49052;DHT22;34866;48.670;18.260;2023-09-07T06:29:56;461.40;128.00
49052;DHT22;34866;48.670;18.260;2023-09-07T06:32:22;461.50;128.00
49052;DHT22;34866;48.670;18.260;2023-09-07T06:34:48;461.50;128.00
49052;DHT22;34866;48.670;18.260;2023-09-07T06:37:14;461.70;128.00
49052;DHT22;34866;48.670;18.260;2023-09-07T06:39:39;486.50;128.00
49052;DHT22;34866;48.670;18.260;2023-09-07T06:42:08;486.60;128.00
49052;DHT22;34866;48.670;18.260;2023-09-07T06:44:35;486.70;128.00
49052;DHT22;34866;48.670;18.260;2023-09-07T06:47:00;486.90;128.00
49052;DHT22;34866;48.670;18.260;2023-09-07T06:49:26;487.10;128.00
49052;DHT22;34866;48.670;18.260;2023-09-07T06:51:57;512.00;128.00
49052;DHT22;34866;48.670;18.260;2023-09-07T06:54:23;512.00;128.00
49052;DHT22;34866;48.670;18.260;2023-09-07T06:56:49;512.20;128.00
49052;DHT22;34866;48.670;18.260;2023-09-07T06:59:15;512.30;128.00
49052;DHT22;34866;48.670;18.260;2023-09-07T07:01:41;512.60;128.00
49052;DHT22;34866;48.670;18.260;2023-09-07T07:04:06;512.80;128.00
49052;DHT22;34866;48.670;18.260;2023-09-07T07:06:33;537.70;128.00
49052;DHT22;34866;48.670;18.260;2023-09-07T07:08:59;537.80;128.00
49052;DHT22;34866;48.670;18.260;2023-09-07T07:11:24;537.90;128.00
49052;DHT22;34866;48.670;18.260;2023-09-07T07:13:50;538.00;128.00
49052;DHT22;34866;48.670;18.260;2023-09-07T07:16:17;538.30;128.00
49052;DHT22;34866;48.670;18.260;2023-09-07T07:18:42;538.50;128.00
49052;DHT22;34866;48.670;18.260;2023-09-07T07:21:08;563.40;128.00
49052;DHT22;34866;48.670;18.260;2023-09-07T07:23:35;563.50;128.00
49052;DHT22;34866;48.670;18.260;2023-09-07T07:26:02;563.70;128.00
49052;DHT22;34866;48.670;18.260;2023-09-07T07:28:28;563.80;128.00
49052;DHT22;34866;48.670;18.260;2023-09-07T07:30:53;564.00;128.00
49052;DHT22;34866;48.670;18.260;2023-09-07T07:33:19;564.10;128.00
49052;DHT22;34866;48.670;18.260;2023-09-07T07:35:45;589.00;128.00
49052;DHT22;34866;48.670;18.260;2023-09-07T07:38:11;589.40;128.00
49052;DHT22;34866;48.670;18.260;2023-09-07T07:40:39;589.40;128.00
49052;DHT22;34866;48.670;18.260;2023-09-07T07:43:04;589.60;128.00
49052;DHT22;34866;48.670;18.260;2023-09-07T07:45:31;614.40;128.00
49052;DHT22;34866;48.670;18.260;2023-09-07T07:48:02;614.50;128.00
49052;DHT22;34866;48.670;18.260;2023-09-07T07:50:28;614.50;128.00
49052;DHT22;34866;48.670;18.260;2023-09-07T07:52:53;614.70;128.00
49052;DHT22;34866;48.670;18.260;2023-09-07T07:55:19;614.70;128.00
49052;DHT22;34866;48.670;18.260;2023-09-07T07:57:44;615.00;128.00
49052;DHT22;34866;48.670;18.260;2023-09-07T08:00:11;615.10;128.00
49052;DHT22;34866;48.670;18.260;2023-09-07T08:02:37;640.00;128.00
49052;DHT22;34866;48.670;18.260;2023-09-07T08:05:03;640.20;128.00
49052;DHT22;34866;48.670;18.260;2023-09-07T08:07:29;640.30;128.00
49052;DHT22;34866;48.670;18.260;2023-09-07T08:09:55;640.50;128.00
49052;DHT22;34866;48.670;18.260;2023-09-07T08:12:21;640.70;435.20
49052;DHT22;34866;48.670;18.260;2023-09-07T08:14:46;640.90;486.40
49052;DHT22;34866;48.670;18.260;2023-09-07T08:17:12;665.70;256.00
49052;DHT22;34866;48.670;18.260;2023-09-07T08:19:38;665.90;281.60
49052;DHT22;34866;48.670;18.260;2023-09-07T08:22:05;666.40;153.60
49052;DHT22;34866;48.670;18.260;2023-09-07T08:24:31;666.40;153.60
49052;DHT22;34866;48.670;18.260;2023-09-07T08:26:58;666.50;153.60
49052;DHT22;34866;48.670;18.260;2023-09-07T08:29:25;666.50;153.60
49052;DHT22;34866;48.670;18.260;2023-09-07T08:31:53;691.60;153.60
49052;DHT22;34866;48.670;18.260;2023-09-07T08:34:19;691.40;153.60
49052;DHT22;34866;48.670;18.260;2023-09-07T08:36:46;691.80;153.60
49052;DHT22;34866;48.670;18.260;2023-09-07T08:39:12;692.10;153.60
49052;DHT22;34866;48.670;18.260;2023-09-07T08:41:42;716.90;179.20
49052;DHT22;34866;48.670;18.260;2023-09-07T08:44:15;716.90;179.20
49052;DHT22;34866;48.670;18.260;2023-09-07T08:46:43;717.20;179.20
49052;DHT22;34866;48.670;18.260;2023-09-07T08:49:08;717.30;179.20
49052;DHT22;34866;48.670;18.260;2023-09-07T08:51:34;717.50;179.20
49052;DHT22;34866;48.670;18.260;2023-09-07T08:54:03;742.50;204.80
49052;DHT22;34866;48.670;18.260;2023-09-07T08:56:29;742.50;204.80
49052;DHT22;34866;48.670;18.260;2023-09-07T08:58:55;742.80;204.80
49052;DHT22;34866;48.670;18.260;2023-09-07T09:01:21;743.10;204.80
49052;DHT22;34866;48.670;18.260;2023-09-07T09:03:48;743.30;204.80
49052;DHT22;34866;48.670;18.260;2023-09-07T09:06:16;743.20;204.80
49052;DHT22;34866;48.670;18.260;2023-09-07T09:08:47;768.20;204.80
49052;DHT22;34866;48.670;18.260;2023-09-07T09:11:16;768.20;204.80
49052;DHT22;34866;48.670;18.260;2023-09-07T09:13:43;768.40;204.80
49052;DHT22;34866;48.670;18.260;2023-09-07T09:16:10;768.60;204.80
49052;DHT22;34866;48.670;18.260;2023-09-07T09:18:36;768.80;204.80
49052;DHT22;34866;48.670;18.260;2023-09-07T09:21:04;768.90;204.80
49052;DHT22;34866;48.670;18.260;2023-09-07T09:23:35;793.70;230.40
49052;DHT22;34866;48.670;18.260;2023-09-07T09:26:01;794.00;230.40
49052;DHT22;34866;48.670;18.260;2023-09-07T09:28:30;793.80;230.40
49052;DHT22;34866;48.670;18.260;2023-09-07T09:30:58;794.20;230.40
49052;DHT22;34866;48.670;18.260;2023-09-07T09:33:25;794.20;230.40
49052;DHT22;34866;48.670;18.260;2023-09-07T09:35:53;794.40;230.40
49052;DHT22;34866;48.670;18.260;2023-09-07T09:38:19;794.50;230.40
49052;DHT22;34866;48.670;18.260;2023-09-07T09:40:45;794.50;230.40
49052;DHT22;34866;48.670;18.260;2023-09-07T09:43:12;819.40;230.40
49052;DHT22;34866;48.670;18.260;2023-09-07T09:45:39;819.30;230.40
49052;DHT22;34866;48.670;18.260;2023-09-07T09:48:05;819.50;230.40
49052;DHT22;34866;48.670;18.260;2023-09-07T09:50:32;819.70;230.40
49052;DHT22;34866;48.670;18.260;2023-09-07T09:53:05;820.10;230.40
49052;DHT22;34866;48.670;18.260;2023-09-07T09:55:33;844.90;256.00
49052;DHT22;34866;48.670;18.260;2023-09-07T09:57:59;844.90;256.00
49052;DHT22;34866;48.670;18.260;2023-09-07T10:00:24;845.40;256.00
49052;DHT22;34866;48.670;18.260;2023-09-07T10:05:20;845.50;256.00
49052;DHT22;34866;48.670;18.260;2023-09-07T10:07:49;845.60;256.00
49052;DHT22;34866;48.670;18.260;2023-09-07T10:10:17;870.70;256.00
49052;DHT22;34866;48.670;18.260;2023-09-07T10:12:45;870.70;256.00
49052;DHT22;34866;48.670;18.260;2023-09-07T10:15:24;870.90;256.00
49052;DHT22;34866;48.670;18.260;2023-09-07T10:17:50;870.90;256.00
49052;DHT22;34866;48.670;18.260;2023-09-07T10:20:18;871.20;256.00
49052;DHT22;34866;48.670;18.260;2023-09-07T10:22:46;871.10;256.00
49052;DHT22;34866;48.670;18.260;2023-09-07T10:25:19;871.00;256.00
49052;DHT22;34866;48.670;18.260;2023-09-07T10:27:45;871.10;256.00
49052;DHT22;34866;48.670;18.260;2023-09-07T10:30:13;896.10;256.00
49052;DHT22;34866;48.670;18.260;2023-09-07T10:32:39;896.00;256.00
49052;DHT22;34866;48.670;18.260;2023-09-07T10:35:15;896.00;256.00
49052;DHT22;34866;48.670;18.260;2023-09-07T10:37:44;896.30;256.00
49052;DHT22;34866;48.670;18.260;2023-09-07T10:40:11;896.60;256.00
49052;DHT22;34866;48.670;18.260;2023-09-07T10:42:37;896.70;256.00
49052;DHT22;34866;48.670;18.260;2023-09-07T10:45:14;896.40;256.00
49052;DHT22;34866;48.670;18.260;2023-09-07T10:47:45;896.70;256.00
49052;DHT22;34866;48.670;18.260;2023-09-07T10:50:12;896.70;256.00
49052;DHT22;34866;48.670;18.260;2023-09-07T10:52:40;896.80;256.00
49052;DHT22;34866;48.670;18.260;2023-09-07T10:55:10;921.60;281.60
49052;DHT22;34866;48.670;18.260;2023-09-07T10:57:46;896.90;256.00
49052;DHT22;34866;48.670;18.260;2023-09-07T11:00:12;921.60;281.60
49052;DHT22;34866;48.670;18.260;2023-09-07T11:02:40;921.60;281.60
49052;DHT22;34866;48.670;18.260;2023-09-07T11:05:06;921.70;281.60
49052;DHT22;34866;48.670;18.260;2023-09-07T11:07:33;922.00;281.60
49052;DHT22;34866;48.670;18.260;2023-09-07T11:09:59;921.90;281.60
49052;DHT22;34866;48.670;18.260;2023-09-07T11:12:25;921.80;281.60
49052;DHT22;34866;48.670;18.260;2023-09-07T11:14:51;922.20;281.60
49052;DHT22;34866;48.670;18.260;2023-09-07T11:17:17;921.80;281.60
49052;DHT22;34866;48.670;18.260;2023-09-07T11:19:43;922.10;281.60
49052;DHT22;34866;48.670;18.260;2023-09-07T11:22:12;922.20;281.60
49052;DHT22;34866;48.670;18.260;2023-09-07T11:24:40;922.50;281.60
49052;DHT22;34866;48.670;18.260;2023-09-07T11:27:05;922.30;281.60
49052;DHT22;34866;48.670;18.260;2023-09-07T11:29:32;921.80;281.60
49052;DHT22;34866;48.670;18.260;2023-09-07T11:32:10;921.90;281.60
49052;DHT22;34866;48.670;18.260;2023-09-07T11:34:57;921.90;281.60
49052;DHT22;34866;48.670;18.260;2023-09-07T11:37:24;922.00;281.60
49052;DHT22;34866;48.670;18.260;2023-09-07T11:39:50;922.10;281.60
49052;DHT22;34866;48.670;18.260;2023-09-07T11:42:16;922.30;281.60
49052;DHT22;34866;48.670;18.260;2023-09-07T11:44:41;922.30;281.60
49052;DHT22;34866;48.670;18.260;2023-09-07T11:47:07;947.30;281.60
49052;DHT22;34866;48.670;18.260;2023-09-07T11:49:33;947.30;281.60
49052;DHT22;34866;48.670;18.260;2023-09-07T11:51:59;947.20;281.60
49052;DHT22;34866;48.670;18.260;2023-09-07T11:54:24;922.40;281.60
49052;DHT22;34866;48.670;18.260;2023-09-07T11:56:50;922.40;281.60
49052;DHT22;34866;48.670;18.260;2023-09-07T11:59:16;947.30;281.60
49052;DHT22;34866;48.670;18.260;2023-09-07T12:01:44;947.20;281.60
49052;DHT22;34866;48.670;18.260;2023-09-07T12:04:10;922.50;281.60
49052;DHT22;34866;48.670;18.260;2023-09-07T12:06:36;947.20;281.60
49052;DHT22;34866;48.670;18.260;2023-09-07T12:09:06;947.60;281.60
49052;DHT22;34866;48.670;18.260;2023-09-07T12:11:32;947.30;281.60
49052;DHT22;34866;48.670;18.260;2023-09-07T12:13:59;947.30;281.60
49052;DHT22;34866;48.670;18.260;2023-09-07T12:16:28;947.50;281.60
49052;DHT22;34866;48.670;18.260;2023-09-07T12:18:54;947.50;281.60
49052;DHT22;34866;48.670;18.260;2023-09-07T12:21:20;947.90;281.60
49052;DHT22;34866;48.670;18.260;2023-09-07T12:23:46;947.50;281.60
49052;DHT22;34866;48.670;18.260;2023-09-07T12:26:14;947.50;281.60
49052;DHT22;34866;48.670;18.260;2023-09-07T12:28:42;947.50;281.60
49052;DHT22;34866;48.670;18.260;2023-09-07T12:31:07;947.90;281.60
49052;DHT22;34866;48.670;18.260;2023-09-07T12:33:33;947.90;281.60
49052;DHT22;34866;48.670;18.260;2023-09-07T12:35:59;948.00;281.60
49052;DHT22;34866;48.670;18.260;2023-09-07T12:38:25;972.80;307.20
49052;DHT22;34866;48.670;18.260;2023-09-07T12:40:54;948.10;281.60
49052;DHT22;34866;48.670;18.260;2023-09-07T12:43:19;972.90;307.20
49052;DHT22;34866;48.670;18.260;2023-09-07T12:45:46;973.00;307.20
49052;DHT22;34866;48.670;18.260;2023-09-07T12:48:12;973.00;307.20
49052;DHT22;34866;48.670;18.260;2023-09-07T12:50:38;972.80;307.20
49052;DHT22;34866;48.670;18.260;2023-09-07T12:53:05;972.80;307.20
49052;DHT22;34866;48.670;18.260;2023-09-07T12:55:31;948.00;281.60
49052;DHT22;34866;48.670;18.260;2023-09-07T12:57:58;972.80;307.20
49052;DHT22;34866;48.670;18.260;2023-09-07T13:00:26;972.90;307.20
49052;DHT22;34866;48.670;18.260;2023-09-07T13:02:52;972.80;307.20
49052;DHT22;34866;48.670;18.260;2023-09-07T13:05:18;973.00;307.20
49052;DHT22;34866;48.670;18.260;2023-09-07T13:07:45;972.80;307.20
49052;DHT22;34866;48.670;18.260;2023-09-07T13:10:11;972.90;307.20
49052;DHT22;34866;48.670;18.260;2023-09-07T13:12:37;972.90;307.20
49052;DHT22;34866;48.670;18.260;2023-09-07T13:15:04;972.80;307.20
49052;DHT22;34866;48.670;18.260;2023-09-07T13:17:30;972.80;307.20
49052;DHT22;34866;48.670;18.260;2023-09-07T13:19:55;947.90;281.60
49052;DHT22;34866;48.670;18.260;2023-09-07T13:22:21;947.90;281.60
49052;DHT22;34866;48.670;18.260;2023-09-07T13:24:47;948.10;281.60
49052;DHT22;34866;48.670;18.260;2023-09-07T13:27:13;948.10;281.60
49052;DHT22;34866;48.670;18.260;2023-09-07T13:29:38;948.00;281.60
49052;DHT22;34866;48.670;18.260;2023-09-07T13:32:04;948.10;281.60
49052;DHT22;34866;48.670;18.260;2023-09-07T13:34:30;972.80;307.20
49052;DHT22;34866;48.670;18.260;2023-09-07T13:36:56;972.80;307.20
49052;DHT22;34866;48.670;18.260;2023-09-07T13:39:22;948.10;281.60
49052;DHT22;34866;48.670;18.260;2023-09-07T13:41:49;947.90;281.60
49052;DHT22;34866;48.670;18.260;2023-09-07T13:44:15;948.00;281.60
49052;DHT22;34866;48.670;18.260;2023-09-07T13:46:41;972.80;307.20
49052;DHT22;34866;48.670;18.260;2023-09-07T13:49:07;948.10;281.60
49052;DHT22;34866;48.670;18.260;2023-09-07T13:51:33;948.10;281.60
49052;DHT22;34866;48.670;18.260;2023-09-07T13:54:04;972.80;307.20
49052;DHT22;34866;48.670;18.260;2023-09-07T13:56:31;948.00;281.60
49052;DHT22;34866;48.670;18.260;2023-09-07T13:58:57;947.90;281.60
49052;DHT22;34866;48.670;18.260;2023-09-07T14:01:23;947.90;281.60
49052;DHT22;34866;48.670;18.260;2023-09-07T14:03:49;948.00;281.60
49052;DHT22;34866;48.670;18.260;2023-09-07T14:06:15;948.10;281.60
49052;DHT22;34866;48.670;18.260;2023-09-07T14:08:46;948.10;281.60
49052;DHT22;34866;48.670;18.260;2023-09-07T14:11:15;972.80;307.20
49052;DHT22;34866;48.670;18.260;2023-09-07T14:13:49;972.90;307.20
49052;DHT22;34866;48.670;18.260;2023-09-07T14:16:22;948.10;281.60
49052;DHT22;34866;48.670;18.260;2023-09-07T14:18:48;947.90;281.60
49052;DHT22;34866;48.670;18.260;2023-09-07T14:21:16;947.90;281.60
49052;DHT22;34866;48.670;18.260;2023-09-07T14:23:43;947.90;281.60
49052;DHT22;34866;48.670;18.260;2023-09-07T14:26:09;947.90;281.60
49052;DHT22;34866;48.670;18.260;2023-09-07T14:28:35;947.90;281.60
49052;DHT22;34866;48.670;18.260;2023-09-07T14:31:03;947.90;281.60
49052;DHT22;34866;48.670;18.260;2023-09-07T14:33:32;947.90;281.60
49052;DHT22;34866;48.670;18.260;2023-09-07T14:35:59;947.80;281.60
49052;DHT22;34866;48.670;18.260;2023-09-07T14:38:28;947.80;281.60
49052;DHT22;34866;48.670;18.260;2023-09-07T14:41:01;947.60;281.60
49052;DHT22;34866;48.670;18.260;2023-09-07T14:43:28;947.40;281.60
49052;DHT22;34866;48.670;18.260;2023-09-07T14:45:55;947.30;281.60
49052;DHT22;34866;48.670;18.260;2023-09-07T14:48:32;947.30;281.60